Plymouth, NH

9:18 PM EST on December 07, 2016 (GMT -0500)
Plymouth

Weather History for K1P1 - November, 2012

Change the Weather History Date:

Saturday, November 3, 2012

  Actual Average (KLCI) Record (KLCI)
Temperature  
Mean Temperature 42 °F -  
Max Temperature 46 °F 53 °F 69 °F (1990)
Min Temperature 39 °F 34 °F 17 °F (2002)
Degree Days  
Heating Degree Days 22    
Moisture  
Dew Point 34 °F    
Average Humidity 72    
Maximum Humidity 79    
Minimum Humidity 60    
Precipitation  
Precipitation 0.00 in - - ()
Sea Level Pressure  
Sea Level Pressure 29.70 in    
Wind  
Wind Speed 10 mph (WNW)    
Max Wind Speed 15 mph    
Max Gust Speed 25 mph    
Visibility 10 miles    
Events      
Averages and records for this station are not official NWS values.
T = Trace of Precipitation, MM = Missing Value Source: NWS Daily Summary

Daily Weather History Graph

Daily Weather History Graph

Search for Another Location

Airport or City:

Trip Planner

Search our weather history database for the weather conditions in past years. The results will help you decide how hot, cold, wet, or windy it might be!

Date:

Astronomy

Nov. 03, 2012 Rise Set
Actual Time 7:26 AM EDT 5:34 PM EDT
Civil Twilight 6:56 AM EDT 6:04 PM EDT
Nautical Twilight 6:22 AM EDT 6:38 PM EDT
Astronomical Twilight 5:48 AM EDT 7:11 PM EDT
Moon 9:09 PM EDT (11/3) 11:31 AM EDT (11/3)
Length of Visible Light 11h 08m
Length of Day
10h 08m
Waning Gibbous, 80% of the Moon is Illuminated
Nov 3
Waning Gibbous
Nov 6
Last Quarter
Nov 13
New
Nov 20
First Quarter
Nov 28
Full

Hourly Weather History & Observations

Time (EDT) Temp. Windchill Dew Point Humidity Pressure Visibility Wind Dir Wind Speed Gust Speed Precip Events Conditions
12:15 AM 42.1 °F 36.6 °F 34.0 °F 73% 29.61 in 10.0 mi WNW 9.2 mph - N/A   Overcast
12:35 AM 41.9 °F 36.3 °F 34.0 °F 73% 29.61 in 10.0 mi WNW 9.2 mph 16.1 mph N/A   Overcast
12:55 AM 41.7 °F 35.2 °F 34.2 °F 75% 29.61 in 10.0 mi West 11.5 mph 19.6 mph N/A   Overcast
1:15 AM 41.5 °F 35.0 °F 34.0 °F 75% 29.61 in 10.0 mi West 11.5 mph 16.1 mph N/A   Overcast
1:35 AM 41.5 °F 35.9 °F 34.0 °F 75% 29.61 in 10.0 mi WNW 9.2 mph 17.3 mph N/A   Overcast
1:55 AM 41.5 °F 35.4 °F 34.2 °F 75% 29.61 in 10.0 mi West 10.4 mph - N/A   Overcast
2:35 AM 41.5 °F 35.4 °F 34.2 °F 75% 29.62 in 10.0 mi West 10.4 mph 16.1 mph N/A   Overcast
2:55 AM 41.4 °F 35.7 °F 34.7 °F 77% 29.62 in 10.0 mi WNW 9.2 mph 17.3 mph N/A   Overcast
3:15 AM 41.2 °F 35.0 °F 34.5 °F 77% 29.62 in 10.0 mi WNW 10.4 mph 16.1 mph N/A   Mostly Cloudy
3:35 AM 41.2 °F 35.5 °F 34.7 °F 78% 29.62 in 10.0 mi WNW 9.2 mph - N/A   Scattered Clouds
3:55 AM 41.4 °F 35.7 °F 34.7 °F 77% 29.62 in 10.0 mi WNW 9.2 mph - N/A   Scattered Clouds
4:15 AM 41.4 °F 35.2 °F 34.7 °F 77% 29.62 in 10.0 mi WNW 10.4 mph - N/A   Mostly Cloudy
4:35 AM 41.2 °F 34.5 °F 34.9 °F 78% 29.62 in 10.0 mi WNW 11.5 mph 16.1 mph N/A   Mostly Cloudy
4:55 AM 41.2 °F 35.0 °F 34.9 °F 78% 29.63 in 10.0 mi West 10.4 mph - N/A   Mostly Cloudy
5:15 AM 41.2 °F 35.5 °F 34.9 °F 78% 29.63 in 10.0 mi WNW 9.2 mph 16.1 mph N/A   Overcast
5:35 AM 41.4 °F 34.7 °F 34.9 °F 78% 29.63 in 10.0 mi WNW 11.5 mph 17.3 mph N/A   Overcast
5:55 AM 41.2 °F 35.0 °F 34.9 °F 78% 29.64 in 10.0 mi WNW 10.4 mph - N/A   Mostly Cloudy
6:15 AM 41.5 °F 35.4 °F 34.9 °F 77% 29.65 in 10.0 mi WNW 10.4 mph 17.3 mph N/A   Mostly Cloudy
6:35 AM 41.4 °F 34.7 °F 35.1 °F 78% 29.65 in 10.0 mi West 11.5 mph 16.1 mph N/A   Overcast
6:55 AM 41.5 °F 35.9 °F 34.9 °F 77% 29.66 in 10.0 mi WNW 9.2 mph - N/A   Overcast
7:15 AM 41.4 °F 35.2 °F 34.9 °F 78% 29.66 in 10.0 mi West 10.4 mph - N/A   Overcast
7:35 AM 41.4 °F 35.7 °F 34.9 °F 78% 29.67 in 10.0 mi WNW 9.2 mph - N/A   Overcast
7:55 AM 41.2 °F 35.0 °F 34.9 °F 78% 29.68 in 10.0 mi West 10.4 mph - N/A   Overcast
8:15 AM 41.2 °F 35.5 °F 35.1 °F 79% 29.69 in 10.0 mi WNW 9.2 mph - N/A   Overcast
8:35 AM 41.0 °F 34.7 °F 35.1 °F 79% 29.69 in 10.0 mi WNW 10.4 mph 16.1 mph N/A   Overcast
9:15 AM 41.7 °F 35.6 °F 34.5 °F 76% 29.70 in 10.0 mi WNW 10.4 mph - N/A   Overcast
9:35 AM 41.7 °F 34.8 °F 34.2 °F 75% 29.70 in 10.0 mi WNW 12.7 mph 19.6 mph N/A   Overcast
9:55 AM 41.5 °F 35.4 °F 34.2 °F 75% 29.71 in 10.0 mi WNW 10.4 mph - N/A   Overcast
10:15 AM 41.9 °F 34.6 °F 34.2 °F 74% 29.71 in 10.0 mi WNW 13.8 mph 18.4 mph N/A   Overcast
10:35 AM 41.9 °F 35.4 °F 33.8 °F 73% 29.71 in 10.0 mi WNW 11.5 mph 18.4 mph N/A   Overcast
10:55 AM 41.9 °F 35.9 °F 33.8 °F 73% 29.71 in 10.0 mi WNW 10.4 mph 17.3 mph N/A   Overcast
11:15 AM 41.9 °F 35.4 °F 34.0 °F 73% 29.72 in 10.0 mi WNW 11.5 mph 17.3 mph N/A   Overcast
11:35 AM 42.3 °F 36.3 °F 33.8 °F 72% 29.72 in 10.0 mi WNW 10.4 mph - N/A   Overcast
11:55 AM 43.2 °F 37.9 °F 33.6 °F 69% 29.71 in 10.0 mi WNW 9.2 mph 16.1 mph N/A   Mostly Cloudy
12:15 PM 43.9 °F 38.8 °F 33.3 °F 66% 29.71 in 10.0 mi WNW 9.2 mph 21.9 mph N/A   Mostly Cloudy
12:35 PM 44.1 °F 37.7 °F 32.7 °F 64% 29.71 in 10.0 mi WNW 12.7 mph 20.7 mph N/A   Overcast
12:55 PM 44.6 °F 38.4 °F 32.5 °F 63% 29.71 in 10.0 mi NW 12.7 mph 18.4 mph N/A   Mostly Cloudy
1:15 PM 46.0 °F 41.4 °F 33.1 °F 61% 29.71 in 10.0 mi WNW 9.2 mph - N/A   Overcast
1:55 PM 45.5 °F 40.3 °F 33.1 °F 62% 29.71 in 10.0 mi NW 10.4 mph 18.4 mph N/A   Overcast
2:15 PM 45.1 °F 39.9 °F 32.7 °F 62% 29.71 in 10.0 mi NW 10.4 mph 16.1 mph N/A   Overcast
2:35 PM 45.0 °F 40.1 °F 32.4 °F 61% 29.71 in 10.0 mi NW 9.2 mph 16.1 mph N/A   Overcast
2:55 PM 45.0 °F 39.7 °F 32.4 °F 61% 29.71 in 10.0 mi NW 10.4 mph 16.1 mph N/A   Overcast
3:15 PM 45.0 °F 40.6 °F 32.2 °F 61% 29.71 in 10.0 mi WNW 8.1 mph - N/A   Overcast
3:35 PM 44.6 °F 37.8 °F 31.6 °F 60% 29.72 in 10.0 mi WNW 15.0 mph 23.0 mph N/A   Overcast
4:15 PM 44.6 °F 38.8 °F 31.6 °F 60% 29.73 in 10.0 mi WNW 11.5 mph 19.6 mph N/A   Overcast
4:35 PM 44.1 °F 40.1 °F 31.8 °F 62% 29.73 in 10.0 mi NW 6.9 mph - N/A   Overcast
4:55 PM 43.7 °F 37.7 °F 31.6 °F 63% 29.74 in 10.0 mi WNW 11.5 mph 19.6 mph N/A   Overcast
5:15 PM 43.0 °F 36.8 °F 32.0 °F 65% 29.75 in 10.0 mi WNW 11.5 mph 17.3 mph N/A   Overcast
5:35 PM 42.3 °F 37.9 °F 32.0 °F 67% 29.75 in 10.0 mi WNW 6.9 mph 19.6 mph N/A   Overcast
5:55 PM 41.9 °F 35.4 °F 32.0 °F 68% 29.75 in 10.0 mi WNW 11.5 mph 18.4 mph N/A   Scattered Clouds
6:15 PM 41.5 °F 34.6 °F 32.0 °F 69% 29.75 in 10.0 mi WNW 12.7 mph 25.3 mph N/A   Scattered Clouds
6:35 PM 41.0 °F 33.5 °F 32.0 °F 70% 29.75 in 10.0 mi WNW 13.8 mph 18.4 mph N/A   Mostly Cloudy
6:55 PM 41.2 °F 35.5 °F 32.0 °F 70% 29.76 in 10.0 mi WNW 9.2 mph 20.7 mph N/A   Mostly Cloudy
7:15 PM 41.2 °F 34.5 °F 32.0 °F 70% 29.76 in 10.0 mi WNW 11.5 mph 19.6 mph N/A   Mostly Cloudy
7:35 PM 41.2 °F 36.6 °F 32.0 °F 70% 29.77 in 10.0 mi WNW 6.9 mph - N/A   Overcast
7:55 PM 41.2 °F 36.6 °F 32.0 °F 70% 29.76 in 10.0 mi WNW 6.9 mph - N/A   Overcast
8:15 PM 41.0 °F 36.4 °F 32.2 °F 71% 29.77 in 10.0 mi WNW 6.9 mph - N/A   Overcast
8:35 PM 40.6 °F 34.8 °F 32.7 °F 73% 29.78 in 10.0 mi West 9.2 mph - N/A   Overcast
9:15 PM 40.1 °F 33.6 °F 33.6 °F 78% 29.79 in 10.0 mi WNW 10.4 mph - N/A   Light Drizzle
9:35 PM 39.9 °F 32.5 °F 33.8 °F 79% 29.79 in 10.0 mi WNW 12.7 mph 18.4 mph N/A   Light Drizzle
10:15 PM 40.1 °F 34.1 °F 33.8 °F 78% 29.79 in 10.0 mi West 9.2 mph 17.3 mph N/A   Overcast
10:35 PM 39.9 °F 35.8 °F 34.0 °F 79% 29.79 in 10.0 mi West 5.8 mph - N/A   Overcast
10:55 PM 39.9 °F 35.8 °F 34.0 °F 79% 29.79 in 10.0 mi West 5.8 mph - N/A   Overcast
11:15 PM 40.1 °F 33.2 °F 33.6 °F 78% 29.79 in 10.0 mi WNW 11.5 mph 16.1 mph N/A   Overcast
11:35 PM 40.1 °F 33.2 °F 33.8 °F 78% 29.79 in 10.0 mi WNW 11.5 mph - N/A   Overcast
11:55 PM 40.1 °F 32.7 °F 33.4 °F 77% 29.79 in 10.0 mi WNW 12.7 mph 19.6 mph N/A   Overcast